sensor_id;sensor_type;location;lat;lon;timestamp;P1;durP1;ratioP1;P2;durP2;ratioP2
19161;SDS011;9713;48.140;11.530;2023-06-26T00:00:15;9.25;;;7.40;;
19161;SDS011;9713;48.140;11.530;2023-06-26T00:03:58;12.48;;;7.07;;
19161;SDS011;9713;48.140;11.530;2023-06-26T00:07:41;10.98;;;7.65;;
19161;SDS011;9713;48.140;11.530;2023-06-26T00:11:25;11.30;;;7.40;;
19161;SDS011;9713;48.140;11.530;2023-06-26T00:15:09;9.00;;;7.20;;
19161;SDS011;9713;48.140;11.530;2023-06-26T00:18:54;9.25;;;6.80;;
19161;SDS011;9713;48.140;11.530;2023-06-26T00:22:37;9.18;;;7.00;;
19161;SDS011;9713;48.140;11.530;2023-06-26T00:26:22;11.60;;;7.50;;
19161;SDS011;9713;48.140;11.530;2023-06-26T00:30:07;11.15;;;7.28;;
19161;SDS011;9713;48.140;11.530;2023-06-26T00:33:51;9.88;;;6.63;;
19161;SDS011;9713;48.140;11.530;2023-06-26T00:37:33;8.40;;;6.80;;
19161;SDS011;9713;48.140;11.530;2023-06-26T00:41:16;8.00;;;6.65;;
19161;SDS011;9713;48.140;11.530;2023-06-26T00:44:59;9.07;;;7.07;;
19161;SDS011;9713;48.140;11.530;2023-06-26T00:48:43;8.05;;;6.38;;
19161;SDS011;9713;48.140;11.530;2023-06-26T00:52:27;9.05;;;6.40;;
19161;SDS011;9713;48.140;11.530;2023-06-26T00:56:09;8.38;;;6.72;;
19161;SDS011;9713;48.140;11.530;2023-06-26T00:59:53;9.38;;;7.32;;
19161;SDS011;9713;48.140;11.530;2023-06-26T01:03:35;9.05;;;6.55;;
19161;SDS011;9713;48.140;11.530;2023-06-26T01:07:22;9.10;;;7.03;;
19161;SDS011;9713;48.140;11.530;2023-06-26T01:11:05;9.10;;;6.63;;
19161;SDS011;9713;48.140;11.530;2023-06-26T01:14:48;8.25;;;6.63;;
19161;SDS011;9713;48.140;11.530;2023-06-26T01:18:31;10.55;;;6.88;;
19161;SDS011;9713;48.140;11.530;2023-06-26T01:22:16;10.18;;;6.80;;
19161;SDS011;9713;48.140;11.530;2023-06-26T01:26:15;9.80;;;6.93;;
19161;SDS011;9713;48.140;11.530;2023-06-26T01:30:00;8.60;;;6.40;;
19161;SDS011;9713;48.140;11.530;2023-06-26T01:33:45;11.85;;;7.32;;
19161;SDS011;9713;48.140;11.530;2023-06-26T01:37:28;8.80;;;7.07;;
19161;SDS011;9713;48.140;11.530;2023-06-26T01:41:11;9.30;;;7.25;;
19161;SDS011;9713;48.140;11.530;2023-06-26T01:44:55;10.55;;;7.38;;
19161;SDS011;9713;48.140;11.530;2023-06-26T01:48:40;10.18;;;7.75;;
19161;SDS011;9713;48.140;11.530;2023-06-26T01:52:29;10.32;;;7.35;;
19161;SDS011;9713;48.140;11.530;2023-06-26T01:56:15;8.88;;;6.93;;
19161;SDS011;9713;48.140;11.530;2023-06-26T02:00:01;8.38;;;6.63;;
19161;SDS011;9713;48.140;11.530;2023-06-26T02:03:45;8.23;;;6.95;;
19161;SDS011;9713;48.140;11.530;2023-06-26T02:07:28;8.77;;;7.05;;
19161;SDS011;9713;48.140;11.530;2023-06-26T02:11:11;9.98;;;7.97;;
19161;SDS011;9713;48.140;11.530;2023-06-26T02:14:53;9.02;;;7.10;;
19161;SDS011;9713;48.140;11.530;2023-06-26T02:18:38;9.52;;;7.55;;
19161;SDS011;9713;48.140;11.530;2023-06-26T02:22:20;12.23;;;7.10;;
19161;SDS011;9713;48.140;11.530;2023-06-26T02:26:06;9.80;;;7.65;;
19161;SDS011;9713;48.140;11.530;2023-06-26T02:29:49;8.98;;;7.07;;
19161;SDS011;9713;48.140;11.530;2023-06-26T02:33:32;10.10;;;7.32;;
19161;SDS011;9713;48.140;11.530;2023-06-26T02:37:16;9.20;;;7.40;;
19161;SDS011;9713;48.140;11.530;2023-06-26T02:40:59;9.68;;;8.00;;
19161;SDS011;9713;48.140;11.530;2023-06-26T02:44:42;9.95;;;7.40;;
19161;SDS011;9713;48.140;11.530;2023-06-26T02:48:24;10.20;;;7.65;;
19161;SDS011;9713;48.140;11.530;2023-06-26T02:52:07;12.55;;;7.70;;
19161;SDS011;9713;48.140;11.530;2023-06-26T02:55:51;10.18;;;7.60;;
19161;SDS011;9713;48.140;11.530;2023-06-26T02:59:34;9.90;;;7.60;;
19161;SDS011;9713;48.140;11.530;2023-06-26T03:03:17;10.63;;;7.90;;
19161;SDS011;9713;48.140;11.530;2023-06-26T03:06:59;9.70;;;7.72;;
19161;SDS011;9713;48.140;11.530;2023-06-26T03:10:42;9.73;;;7.72;;
19161;SDS011;9713;48.140;11.530;2023-06-26T03:14:26;10.00;;;7.85;;
19161;SDS011;9713;48.140;11.530;2023-06-26T03:18:10;10.73;;;7.43;;
19161;SDS011;9713;48.140;11.530;2023-06-26T03:21:52;10.43;;;7.22;;
19161;SDS011;9713;48.140;11.530;2023-06-26T03:25:36;10.05;;;7.82;;
19161;SDS011;9713;48.140;11.530;2023-06-26T03:29:19;9.73;;;7.70;;
19161;SDS011;9713;48.140;11.530;2023-06-26T03:33:03;10.90;;;7.88;;
19161;SDS011;9713;48.140;11.530;2023-06-26T03:36:46;11.10;;;7.47;;
19161;SDS011;9713;48.140;11.530;2023-06-26T03:40:29;10.13;;;7.30;;
19161;SDS011;9713;48.140;11.530;2023-06-26T03:44:11;10.23;;;7.70;;
19161;SDS011;9713;48.140;11.530;2023-06-26T03:47:54;10.57;;;7.32;;
19161;SDS011;9713;48.140;11.530;2023-06-26T03:51:38;11.00;;;7.75;;
19161;SDS011;9713;48.140;11.530;2023-06-26T03:55:21;9.10;;;7.25;;
19161;SDS011;9713;48.140;11.530;2023-06-26T03:59:05;11.13;;;7.93;;
19161;SDS011;9713;48.140;11.530;2023-06-26T04:02:48;10.30;;;7.70;;
19161;SDS011;9713;48.140;11.530;2023-06-26T04:06:32;11.43;;;7.60;;
19161;SDS011;9713;48.140;11.530;2023-06-26T04:10:16;10.43;;;7.93;;
19161;SDS011;9713;48.140;11.530;2023-06-26T04:13:59;12.07;;;7.65;;
19161;SDS011;9713;48.140;11.530;2023-06-26T04:17:44;11.63;;;7.72;;
19161;SDS011;9713;48.140;11.530;2023-06-26T04:21:26;11.23;;;7.95;;
19161;SDS011;9713;48.140;11.530;2023-06-26T04:25:09;12.40;;;8.13;;
19161;SDS011;9713;48.140;11.530;2023-06-26T04:28:54;10.65;;;7.57;;
19161;SDS011;9713;48.140;11.530;2023-06-26T04:32:37;11.35;;;7.97;;
19161;SDS011;9713;48.140;11.530;2023-06-26T04:36:20;9.63;;;7.35;;
19161;SDS011;9713;48.140;11.530;2023-06-26T04:40:03;12.65;;;8.10;;
19161;SDS011;9713;48.140;11.530;2023-06-26T04:43:46;10.20;;;7.13;;
19161;SDS011;9713;48.140;11.530;2023-06-26T04:47:30;10.63;;;7.82;;
19161;SDS011;9713;48.140;11.530;2023-06-26T04:51:13;12.43;;;7.97;;
19161;SDS011;9713;48.140;11.530;2023-06-26T04:54:56;10.27;;;7.82;;
19161;SDS011;9713;48.140;11.530;2023-06-26T04:58:39;9.73;;;7.53;;
19161;SDS011;9713;48.140;11.530;2023-06-26T05:02:21;12.23;;;7.68;;
19161;SDS011;9713;48.140;11.530;2023-06-26T05:06:06;11.60;;;7.72;;
19161;SDS011;9713;48.140;11.530;2023-06-26T05:09:50;15.93;;;9.20;;
19161;SDS011;9713;48.140;11.530;2023-06-26T05:13:33;10.35;;;7.63;;
19161;SDS011;9713;48.140;11.530;2023-06-26T05:17:15;12.73;;;8.35;;
19161;SDS011;9713;48.140;11.530;2023-06-26T05:20:59;11.60;;;8.38;;
19161;SDS011;9713;48.140;11.530;2023-06-26T05:24:46;9.70;;;7.53;;
19161;SDS011;9713;48.140;11.530;2023-06-26T05:28:29;11.55;;;7.68;;
19161;SDS011;9713;48.140;11.530;2023-06-26T05:32:13;13.13;;;8.55;;
19161;SDS011;9713;48.140;11.530;2023-06-26T05:35:58;12.35;;;8.35;;
19161;SDS011;9713;48.140;11.530;2023-06-26T05:39:42;10.77;;;7.70;;
19161;SDS011;9713;48.140;11.530;2023-06-26T05:43:28;12.18;;;8.65;;
19161;SDS011;9713;48.140;11.530;2023-06-26T05:47:11;9.52;;;7.45;;
19161;SDS011;9713;48.140;11.530;2023-06-26T05:50:56;13.77;;;8.07;;
19161;SDS011;9713;48.140;11.530;2023-06-26T05:54:40;13.38;;;8.60;;
19161;SDS011;9713;48.140;11.530;2023-06-26T05:58:23;13.85;;;8.65;;
19161;SDS011;9713;48.140;11.530;2023-06-26T06:02:08;10.82;;;7.50;;
19161;SDS011;9713;48.140;11.530;2023-06-26T06:05:51;8.90;;;6.93;;
19161;SDS011;9713;48.140;11.530;2023-06-26T06:09:34;9.50;;;6.82;;
19161;SDS011;9713;48.140;11.530;2023-06-26T06:13:17;10.55;;;7.25;;
19161;SDS011;9713;48.140;11.530;2023-06-26T06:16:59;9.43;;;7.20;;
19161;SDS011;9713;48.140;11.530;2023-06-26T06:20:44;9.73;;;6.93;;
19161;SDS011;9713;48.140;11.530;2023-06-26T06:24:26;10.63;;;7.00;;
19161;SDS011;9713;48.140;11.530;2023-06-26T06:28:09;8.13;;;6.68;;
19161;SDS011;9713;48.140;11.530;2023-06-26T06:31:52;8.25;;;6.40;;
19161;SDS011;9713;48.140;11.530;2023-06-26T06:35:35;9.02;;;6.63;;
19161;SDS011;9713;48.140;11.530;2023-06-26T06:39:19;8.98;;;6.80;;
19161;SDS011;9713;48.140;11.530;2023-06-26T06:43:01;8.80;;;6.78;;
19161;SDS011;9713;48.140;11.530;2023-06-26T06:46:44;9.68;;;6.53;;
19161;SDS011;9713;48.140;11.530;2023-06-26T06:50:27;8.30;;;6.65;;
19161;SDS011;9713;48.140;11.530;2023-06-26T06:54:10;8.52;;;6.57;;
19161;SDS011;9713;48.140;11.530;2023-06-26T06:57:54;11.20;;;6.70;;
19161;SDS011;9713;48.140;11.530;2023-06-26T07:01:37;9.50;;;6.63;;
19161;SDS011;9713;48.140;11.530;2023-06-26T07:05:21;10.23;;;6.63;;
19161;SDS011;9713;48.140;11.530;2023-06-26T07:09:04;8.90;;;6.28;;
19161;SDS011;9713;48.140;11.530;2023-06-26T07:12:48;8.98;;;6.45;;
19161;SDS011;9713;48.140;11.530;2023-06-26T07:16:32;9.00;;;6.75;;
19161;SDS011;9713;48.140;11.530;2023-06-26T07:20:15;8.00;;;6.35;;
19161;SDS011;9713;48.140;11.530;2023-06-26T07:23:57;9.40;;;7.10;;
19161;SDS011;9713;48.140;11.530;2023-06-26T07:27:40;7.95;;;6.43;;
19161;SDS011;9713;48.140;11.530;2023-06-26T07:31:23;8.85;;;6.20;;
19161;SDS011;9713;48.140;11.530;2023-06-26T07:35:07;9.27;;;6.80;;
19161;SDS011;9713;48.140;11.530;2023-06-26T07:38:50;11.13;;;6.65;;
19161;SDS011;9713;48.140;11.530;2023-06-26T07:42:33;10.48;;;6.60;;
19161;SDS011;9713;48.140;11.530;2023-06-26T07:46:16;7.10;;;6.25;;
19161;SDS011;9713;48.140;11.530;2023-06-26T07:49:59;9.32;;;6.90;;
19161;SDS011;9713;48.140;11.530;2023-06-26T07:53:43;9.45;;;6.65;;
19161;SDS011;9713;48.140;11.530;2023-06-26T07:57:26;9.32;;;7.18;;
19161;SDS011;9713;48.140;11.530;2023-06-26T08:01:08;10.02;;;6.75;;
19161;SDS011;9713;48.140;11.530;2023-06-26T08:04:52;8.55;;;6.57;;
19161;SDS011;9713;48.140;11.530;2023-06-26T08:08:38;9.15;;;6.60;;
19161;SDS011;9713;48.140;11.530;2023-06-26T08:12:22;10.52;;;7.20;;
19161;SDS011;9713;48.140;11.530;2023-06-26T08:16:05;8.07;;;6.47;;
19161;SDS011;9713;48.140;11.530;2023-06-26T08:19:48;11.13;;;7.25;;
19161;SDS011;9713;48.140;11.530;2023-06-26T08:23:30;8.32;;;7.13;;
19161;SDS011;9713;48.140;11.530;2023-06-26T08:27:13;11.20;;;7.20;;
19161;SDS011;9713;48.140;11.530;2023-06-26T08:30:57;10.77;;;6.85;;
19161;SDS011;9713;48.140;11.530;2023-06-26T08:34:42;10.63;;;6.90;;
19161;SDS011;9713;48.140;11.530;2023-06-26T08:38:24;12.43;;;6.50;;
19161;SDS011;9713;48.140;11.530;2023-06-26T08:42:07;13.32;;;10.60;;
19161;SDS011;9713;48.140;11.530;2023-06-26T08:45:50;9.32;;;6.88;;
19161;SDS011;9713;48.140;11.530;2023-06-26T08:49:37;7.75;;;6.93;;
19161;SDS011;9713;48.140;11.530;2023-06-26T08:53:25;9.95;;;6.40;;
19161;SDS011;9713;48.140;11.530;2023-06-26T08:57:11;7.13;;;5.90;;
19161;SDS011;9713;48.140;11.530;2023-06-26T09:00:54;8.10;;;5.68;;
19161;SDS011;9713;48.140;11.530;2023-06-26T09:04:39;6.45;;;5.75;;
19161;SDS011;9713;48.140;11.530;2023-06-26T09:08:22;7.95;;;5.97;;
19161;SDS011;9713;48.140;11.530;2023-06-26T09:12:05;7.53;;;6.30;;
19161;SDS011;9713;48.140;11.530;2023-06-26T09:15:48;9.38;;;6.25;;
19161;SDS011;9713;48.140;11.530;2023-06-26T09:19:31;7.50;;;6.57;;
19161;SDS011;9713;48.140;11.530;2023-06-26T09:23:18;6.80;;;6.10;;
19161;SDS011;9713;48.140;11.530;2023-06-26T09:27:04;8.40;;;5.35;;
19161;SDS011;9713;48.140;11.530;2023-06-26T09:30:47;6.28;;;5.38;;
19161;SDS011;9713;48.140;11.530;2023-06-26T09:34:30;6.30;;;5.50;;
19161;SDS011;9713;48.140;11.530;2023-06-26T09:38:14;6.32;;;5.45;;
19161;SDS011;9713;48.140;11.530;2023-06-26T09:42:00;6.65;;;5.50;;
19161;SDS011;9713;48.140;11.530;2023-06-26T09:45:47;6.93;;;5.35;;
19161;SDS011;9713;48.140;11.530;2023-06-26T09:49:30;4.78;;;4.30;;
19161;SDS011;9713;48.140;11.530;2023-06-26T09:53:13;6.78;;;4.90;;
19161;SDS011;9713;48.140;11.530;2023-06-26T09:57:08;5.45;;;4.90;;
19161;SDS011;9713;48.140;11.530;2023-06-26T10:00:50;5.53;;;4.65;;
19161;SDS011;9713;48.140;11.530;2023-06-26T10:04:34;8.13;;;4.40;;
19161;SDS011;9713;48.140;11.530;2023-06-26T10:08:17;7.43;;;5.00;;
19161;SDS011;9713;48.140;11.530;2023-06-26T10:12:01;5.07;;;4.57;;
19161;SDS011;9713;48.140;11.530;2023-06-26T10:15:46;7.65;;;4.70;;
19161;SDS011;9713;48.140;11.530;2023-06-26T10:19:30;5.88;;;4.57;;
19161;SDS011;9713;48.140;11.530;2023-06-26T10:23:14;6.43;;;4.50;;
19161;SDS011;9713;48.140;11.530;2023-06-26T10:27:00;6.93;;;4.15;;
19161;SDS011;9713;48.140;11.530;2023-06-26T10:30:45;5.82;;;4.90;;
19161;SDS011;9713;48.140;11.530;2023-06-26T10:34:30;6.07;;;4.70;;
19161;SDS011;9713;48.140;11.530;2023-06-26T10:38:15;5.85;;;4.93;;
19161;SDS011;9713;48.140;11.530;2023-06-26T10:41:57;5.35;;;4.78;;
19161;SDS011;9713;48.140;11.530;2023-06-26T10:45:52;5.45;;;4.75;;
19161;SDS011;9713;48.140;11.530;2023-06-26T10:49:37;6.43;;;4.68;;
19161;SDS011;9713;48.140;11.530;2023-06-26T10:53:23;5.00;;;4.50;;
19161;SDS011;9713;48.140;11.530;2023-06-26T10:57:08;5.20;;;4.40;;
19161;SDS011;9713;48.140;11.530;2023-06-26T11:00:52;6.40;;;4.55;;
19161;SDS011;9713;48.140;11.530;2023-06-26T11:04:59;5.00;;;4.50;;
19161;SDS011;9713;48.140;11.530;2023-06-26T11:08:45;8.52;;;4.50;;
19161;SDS011;9713;48.140;11.530;2023-06-26T11:12:37;6.63;;;4.20;;
19161;SDS011;9713;48.140;11.530;2023-06-26T11:16:22;5.47;;;4.82;;
19161;SDS011;9713;48.140;11.530;2023-06-26T11:20:08;6.85;;;4.93;;
19161;SDS011;9713;48.140;11.530;2023-06-26T11:23:52;5.32;;;4.70;;
19161;SDS011;9713;48.140;11.530;2023-06-26T11:27:39;7.03;;;4.55;;
19161;SDS011;9713;48.140;11.530;2023-06-26T11:31:27;6.50;;;4.93;;
19161;SDS011;9713;48.140;11.530;2023-06-26T11:35:12;6.32;;;5.00;;
19161;SDS011;9713;48.140;11.530;2023-06-26T11:38:55;5.82;;;5.22;;
19161;SDS011;9713;48.140;11.530;2023-06-26T11:42:38;6.18;;;5.30;;
19161;SDS011;9713;48.140;11.530;2023-06-26T11:46:21;6.72;;;5.00;;
19161;SDS011;9713;48.140;11.530;2023-06-26T11:50:06;6.50;;;5.25;;
19161;SDS011;9713;48.140;11.530;2023-06-26T11:53:49;9.07;;;4.90;;
19161;SDS011;9713;48.140;11.530;2023-06-26T11:57:33;5.70;;;5.05;;
19161;SDS011;9713;48.140;11.530;2023-06-26T12:01:19;5.80;;;5.20;;
19161;SDS011;9713;48.140;11.530;2023-06-26T12:05:02;7.50;;;5.47;;
19161;SDS011;9713;48.140;11.530;2023-06-26T12:08:47;6.15;;;5.55;;
19161;SDS011;9713;48.140;11.530;2023-06-26T12:12:30;6.35;;;5.75;;
19161;SDS011;9713;48.140;11.530;2023-06-26T12:16:14;8.85;;;5.47;;
19161;SDS011;9713;48.140;11.530;2023-06-26T12:19:57;9.98;;;7.53;;
19161;SDS011;9713;48.140;11.530;2023-06-26T12:23:40;11.25;;;5.80;;
19161;SDS011;9713;48.140;11.530;2023-06-26T12:27:24;6.63;;;5.90;;
19161;SDS011;9713;48.140;11.530;2023-06-26T12:31:14;5.90;;;4.88;;
19161;SDS011;9713;48.140;11.530;2023-06-26T12:34:57;6.20;;;5.43;;
19161;SDS011;9713;48.140;11.530;2023-06-26T12:38:40;6.38;;;5.72;;
19161;SDS011;9713;48.140;11.530;2023-06-26T12:42:25;7.63;;;5.85;;
19161;SDS011;9713;48.140;11.530;2023-06-26T12:46:08;7.57;;;6.00;;
19161;SDS011;9713;48.140;11.530;2023-06-26T12:49:52;7.70;;;5.82;;
19161;SDS011;9713;48.140;11.530;2023-06-26T12:53:35;6.35;;;5.60;;
19161;SDS011;9713;48.140;11.530;2023-06-26T12:57:17;7.32;;;5.55;;
19161;SDS011;9713;48.140;11.530;2023-06-26T13:01:02;7.22;;;5.97;;
19161;SDS011;9713;48.140;11.530;2023-06-26T13:04:46;9.77;;;6.07;;
19161;SDS011;9713;48.140;11.530;2023-06-26T13:08:29;7.13;;;6.38;;
19161;SDS011;9713;48.140;11.530;2023-06-26T13:12:12;8.93;;;5.80;;
19161;SDS011;9713;48.140;11.530;2023-06-26T13:15:55;6.82;;;5.88;;
19161;SDS011;9713;48.140;11.530;2023-06-26T13:19:39;9.48;;;6.13;;
19161;SDS011;9713;48.140;11.530;2023-06-26T13:23:21;7.22;;;5.72;;
19161;SDS011;9713;48.140;11.530;2023-06-26T13:27:05;6.75;;;5.95;;
19161;SDS011;9713;48.140;11.530;2023-06-26T13:30:48;7.35;;;6.00;;
19161;SDS011;9713;48.140;11.530;2023-06-26T13:34:31;9.43;;;6.60;;
19161;SDS011;9713;48.140;11.530;2023-06-26T13:38:15;6.97;;;6.22;;
19161;SDS011;9713;48.140;11.530;2023-06-26T13:41:59;9.07;;;5.57;;
19161;SDS011;9713;48.140;11.530;2023-06-26T13:45:42;6.72;;;6.00;;
19161;SDS011;9713;48.140;11.530;2023-06-26T13:49:25;9.30;;;6.20;;
19161;SDS011;9713;48.140;11.530;2023-06-26T13:53:07;6.30;;;5.70;;
19161;SDS011;9713;48.140;11.530;2023-06-26T13:56:52;9.25;;;6.55;;
19161;SDS011;9713;48.140;11.530;2023-06-26T14:00:39;10.02;;;6.22;;
19161;SDS011;9713;48.140;11.530;2023-06-26T14:04:22;8.07;;;6.40;;
19161;SDS011;9713;48.140;11.530;2023-06-26T14:08:06;7.97;;;6.15;;
19161;SDS011;9713;48.140;11.530;2023-06-26T14:11:53;6.88;;;6.18;;
19161;SDS011;9713;48.140;11.530;2023-06-26T14:15:36;6.45;;;5.68;;
19161;SDS011;9713;48.140;11.530;2023-06-26T14:19:20;8.20;;;6.10;;
19161;SDS011;9713;48.140;11.530;2023-06-26T14:23:03;8.05;;;5.85;;
19161;SDS011;9713;48.140;11.530;2023-06-26T14:26:46;6.53;;;5.60;;
19161;SDS011;9713;48.140;11.530;2023-06-26T14:30:30;7.15;;;5.53;;
19161;SDS011;9713;48.140;11.530;2023-06-26T14:34:13;7.53;;;5.63;;
19161;SDS011;9713;48.140;11.530;2023-06-26T14:37:55;6.72;;;5.82;;
19161;SDS011;9713;48.140;11.530;2023-06-26T14:41:38;8.80;;;5.75;;
19161;SDS011;9713;48.140;11.530;2023-06-26T14:45:21;7.18;;;5.75;;
19161;SDS011;9713;48.140;11.530;2023-06-26T14:49:06;6.63;;;5.65;;
19161;SDS011;9713;48.140;11.530;2023-06-26T14:52:49;7.82;;;5.80;;
19161;SDS011;9713;48.140;11.530;2023-06-26T14:56:32;6.47;;;5.28;;
19161;SDS011;9713;48.140;11.530;2023-06-26T15:00:15;6.20;;;5.60;;
19161;SDS011;9713;48.140;11.530;2023-06-26T15:03:59;7.15;;;6.05;;
19161;SDS011;9713;48.140;11.530;2023-06-26T15:07:43;7.85;;;5.63;;
19161;SDS011;9713;48.140;11.530;2023-06-26T15:11:26;6.30;;;5.70;;
19161;SDS011;9713;48.140;11.530;2023-06-26T15:15:09;7.90;;;5.38;;
19161;SDS011;9713;48.140;11.530;2023-06-26T15:18:52;6.57;;;5.43;;
19161;SDS011;9713;48.140;11.530;2023-06-26T15:22:35;6.78;;;6.18;;
19161;SDS011;9713;48.140;11.530;2023-06-26T15:26:19;6.47;;;5.82;;
19161;SDS011;9713;48.140;11.530;2023-06-26T15:30:02;7.00;;;6.28;;
19161;SDS011;9713;48.140;11.530;2023-06-26T15:33:47;8.05;;;6.43;;
19161;SDS011;9713;48.140;11.530;2023-06-26T15:37:29;7.32;;;6.18;;
19161;SDS011;9713;48.140;11.530;2023-06-26T15:41:12;6.57;;;5.78;;
19161;SDS011;9713;48.140;11.530;2023-06-26T15:44:56;8.13;;;6.22;;
19161;SDS011;9713;48.140;11.530;2023-06-26T15:48:42;8.30;;;6.53;;
19161;SDS011;9713;48.140;11.530;2023-06-26T15:52:25;10.05;;;6.60;;
19161;SDS011;9713;48.140;11.530;2023-06-26T15:56:08;12.85;;;6.88;;
19161;SDS011;9713;48.140;11.530;2023-06-26T15:59:52;8.15;;;6.32;;
19161;SDS011;9713;48.140;11.530;2023-06-26T16:03:36;16.23;;;7.25;;
19161;SDS011;9713;48.140;11.530;2023-06-26T16:07:19;12.38;;;7.10;;
19161;SDS011;9713;48.140;11.530;2023-06-26T16:11:05;9.18;;;6.70;;
19161;SDS011;9713;48.140;11.530;2023-06-26T16:14:48;11.38;;;6.93;;
19161;SDS011;9713;48.140;11.530;2023-06-26T16:18:31;7.38;;;6.35;;
19161;SDS011;9713;48.140;11.530;2023-06-26T16:22:16;11.23;;;6.43;;
19161;SDS011;9713;48.140;11.530;2023-06-26T16:25:59;13.20;;;7.28;;
19161;SDS011;9713;48.140;11.530;2023-06-26T16:29:42;8.70;;;6.80;;
19161;SDS011;9713;48.140;11.530;2023-06-26T16:33:24;10.10;;;6.88;;
19161;SDS011;9713;48.140;11.530;2023-06-26T16:37:07;7.25;;;6.47;;
19161;SDS011;9713;48.140;11.530;2023-06-26T16:40:51;7.32;;;6.50;;
19161;SDS011;9713;48.140;11.530;2023-06-26T16:44:34;10.48;;;6.72;;
19161;SDS011;9713;48.140;11.530;2023-06-26T16:48:17;7.65;;;6.85;;
19161;SDS011;9713;48.140;11.530;2023-06-26T16:52:00;7.50;;;6.68;;
19161;SDS011;9713;48.140;11.530;2023-06-26T16:55:43;10.07;;;6.90;;
19161;SDS011;9713;48.140;11.530;2023-06-26T16:59:28;7.85;;;6.78;;
19161;SDS011;9713;48.140;11.530;2023-06-26T17:03:10;7.82;;;6.50;;
19161;SDS011;9713;48.140;11.530;2023-06-26T17:06:55;9.75;;;7.07;;
19161;SDS011;9713;48.140;11.530;2023-06-26T17:10:40;8.23;;;6.78;;
19161;SDS011;9713;48.140;11.530;2023-06-26T17:14:24;7.57;;;6.78;;
19161;SDS011;9713;48.140;11.530;2023-06-26T17:18:08;8.18;;;7.05;;
19161;SDS011;9713;48.140;11.530;2023-06-26T17:21:51;9.13;;;7.13;;
19161;SDS011;9713;48.140;11.530;2023-06-26T17:25:34;7.53;;;6.68;;
19161;SDS011;9713;48.140;11.530;2023-06-26T17:29:17;8.55;;;7.13;;
19161;SDS011;9713;48.140;11.530;2023-06-26T17:32:59;10.70;;;6.75;;
19161;SDS011;9713;48.140;11.530;2023-06-26T17:36:46;10.10;;;6.75;;
19161;SDS011;9713;48.140;11.530;2023-06-26T17:40:28;9.02;;;7.10;;
19161;SDS011;9713;48.140;11.530;2023-06-26T17:44:11;7.97;;;6.97;;
19161;SDS011;9713;48.140;11.530;2023-06-26T17:47:54;8.70;;;6.93;;
19161;SDS011;9713;48.140;11.530;2023-06-26T17:51:39;10.32;;;7.75;;
19161;SDS011;9713;48.140;11.530;2023-06-26T17:55:23;13.02;;;7.70;;
19161;SDS011;9713;48.140;11.530;2023-06-26T17:59:06;13.55;;;7.95;;
19161;SDS011;9713;48.140;11.530;2023-06-26T18:02:48;10.52;;;8.20;;
19161;SDS011;9713;48.140;11.530;2023-06-26T18:06:31;11.57;;;8.00;;
19161;SDS011;9713;48.140;11.530;2023-06-26T18:10:14;13.88;;;8.52;;
19161;SDS011;9713;48.140;11.530;2023-06-26T18:13:58;9.68;;;8.20;;
19161;SDS011;9713;48.140;11.530;2023-06-26T18:17:42;10.27;;;7.93;;
19161;SDS011;9713;48.140;11.530;2023-06-26T18:21:25;13.23;;;8.63;;
19161;SDS011;9713;48.140;11.530;2023-06-26T18:25:08;15.07;;;8.35;;
19161;SDS011;9713;48.140;11.530;2023-06-26T18:28:53;11.27;;;8.40;;
19161;SDS011;9713;48.140;11.530;2023-06-26T18:32:38;10.70;;;8.68;;
19161;SDS011;9713;48.140;11.530;2023-06-26T18:36:21;10.88;;;7.90;;
19161;SDS011;9713;48.140;11.530;2023-06-26T18:40:04;9.73;;;7.85;;
19161;SDS011;9713;48.140;11.530;2023-06-26T18:43:55;10.93;;;7.63;;
19161;SDS011;9713;48.140;11.530;2023-06-26T18:47:39;9.82;;;8.02;;
19161;SDS011;9713;48.140;11.530;2023-06-26T18:51:22;9.48;;;8.35;;
19161;SDS011;9713;48.140;11.530;2023-06-26T18:55:05;13.77;;;8.10;;
19161;SDS011;9713;48.140;11.530;2023-06-26T18:58:48;9.35;;;7.70;;
19161;SDS011;9713;48.140;11.530;2023-06-26T19:02:31;9.02;;;7.65;;
19161;SDS011;9713;48.140;11.530;2023-06-26T19:06:16;11.40;;;7.53;;
19161;SDS011;9713;48.140;11.530;2023-06-26T19:09:59;9.45;;;7.57;;
19161;SDS011;9713;48.140;11.530;2023-06-26T19:13:42;9.77;;;8.20;;
19161;SDS011;9713;48.140;11.530;2023-06-26T19:17:25;10.55;;;7.78;;
19161;SDS011;9713;48.140;11.530;2023-06-26T19:21:08;8.98;;;7.25;;
19161;SDS011;9713;48.140;11.530;2023-06-26T19:24:52;12.38;;;8.55;;
19161;SDS011;9713;48.140;11.530;2023-06-26T19:28:35;10.73;;;8.35;;
19161;SDS011;9713;48.140;11.530;2023-06-26T19:32:18;10.48;;;8.35;;
19161;SDS011;9713;48.140;11.530;2023-06-26T19:36:01;9.50;;;7.88;;
19161;SDS011;9713;48.140;11.530;2023-06-26T19:39:43;10.55;;;8.23;;
19161;SDS011;9713;48.140;11.530;2023-06-26T19:43:27;11.13;;;7.70;;
19161;SDS011;9713;48.140;11.530;2023-06-26T19:47:10;11.55;;;8.40;;
19161;SDS011;9713;48.140;11.530;2023-06-26T19:50:53;12.13;;;8.50;;
19161;SDS011;9713;48.140;11.530;2023-06-26T19:54:36;10.85;;;7.85;;
19161;SDS011;9713;48.140;11.530;2023-06-26T19:58:18;12.00;;;7.88;;
19161;SDS011;9713;48.140;11.530;2023-06-26T20:02:02;11.45;;;7.72;;
19161;SDS011;9713;48.140;11.530;2023-06-26T20:05:46;11.18;;;7.80;;
19161;SDS011;9713;48.140;11.530;2023-06-26T20:09:29;14.52;;;7.50;;
19161;SDS011;9713;48.140;11.530;2023-06-26T20:13:13;9.40;;;6.75;;
19161;SDS011;9713;48.140;11.530;2023-06-26T20:16:59;10.98;;;6.55;;
19161;SDS011;9713;48.140;11.530;2023-06-26T20:20:43;8.88;;;6.63;;
19161;SDS011;9713;48.140;11.530;2023-06-26T20:24:28;15.23;;;8.05;;
19161;SDS011;9713;48.140;11.530;2023-06-26T20:28:14;12.20;;;6.75;;
19161;SDS011;9713;48.140;11.530;2023-06-26T20:31:57;12.25;;;6.57;;
19161;SDS011;9713;48.140;11.530;2023-06-26T20:35:44;13.35;;;6.50;;
19161;SDS011;9713;48.140;11.530;2023-06-26T20:39:27;9.75;;;7.05;;
19161;SDS011;9713;48.140;11.530;2023-06-26T20:43:10;12.40;;;7.50;;
19161;SDS011;9713;48.140;11.530;2023-06-26T20:46:53;10.75;;;7.03;;
19161;SDS011;9713;48.140;11.530;2023-06-26T20:50:51;11.10;;;7.45;;
19161;SDS011;9713;48.140;11.530;2023-06-26T20:54:34;10.85;;;7.88;;
19161;SDS011;9713;48.140;11.530;2023-06-26T20:58:17;8.57;;;6.50;;
19161;SDS011;9713;48.140;11.530;2023-06-26T21:02:00;9.00;;;6.50;;
19161;SDS011;9713;48.140;11.530;2023-06-26T21:05:43;16.42;;;7.18;;
19161;SDS011;9713;48.140;11.530;2023-06-26T21:09:27;12.07;;;7.57;;
19161;SDS011;9713;48.140;11.530;2023-06-26T21:13:09;8.68;;;6.90;;
19161;SDS011;9713;48.140;11.530;2023-06-26T21:16:52;10.80;;;6.82;;
19161;SDS011;9713;48.140;11.530;2023-06-26T21:20:35;8.77;;;6.50;;
19161;SDS011;9713;48.140;11.530;2023-06-26T21:24:18;9.57;;;6.93;;
19161;SDS011;9713;48.140;11.530;2023-06-26T21:28:02;9.27;;;6.78;;
19161;SDS011;9713;48.140;11.530;2023-06-26T21:31:45;9.32;;;6.28;;
19161;SDS011;9713;48.140;11.530;2023-06-26T21:35:27;11.57;;;6.35;;
19161;SDS011;9713;48.140;11.530;2023-06-26T21:39:24;11.23;;;6.65;;
19161;SDS011;9713;48.140;11.530;2023-06-26T21:43:08;9.05;;;6.63;;
19161;SDS011;9713;48.140;11.530;2023-06-26T21:46:51;12.70;;;6.28;;
19161;SDS011;9713;48.140;11.530;2023-06-26T21:50:34;7.68;;;5.53;;
19161;SDS011;9713;48.140;11.530;2023-06-26T21:54:17;7.80;;;5.82;;
19161;SDS011;9713;48.140;11.530;2023-06-26T21:58:00;10.75;;;6.30;;
19161;SDS011;9713;48.140;11.530;2023-06-26T22:01:44;8.23;;;5.78;;
19161;SDS011;9713;48.140;11.530;2023-06-26T22:05:26;8.27;;;6.03;;
19161;SDS011;9713;48.140;11.530;2023-06-26T22:09:09;8.45;;;5.68;;
19161;SDS011;9713;48.140;11.530;2023-06-26T22:12:53;8.45;;;5.70;;
19161;SDS011;9713;48.140;11.530;2023-06-26T22:16:36;12.13;;;6.90;;
19161;SDS011;9713;48.140;11.530;2023-06-26T22:20:20;7.28;;;5.10;;